Time;durP1;ratioP1;P1;durP2;ratioP2;P2;SDS_P1;SDS_P2;PMS_P1;PMS_P2;Temp;Humidity;BMP_temperature;BMP_pressure;BME280_temperature;BME280_humidity;BME280_pressure;Samples;Min_cycle;Max_cycle;Signal;HPM_P1;HPM_P2
2022/10/07 00:01:13;;;;;;;10.57;4.03;;;;;;;13.07;60.95;102673.63;5019684;28;20429;-65
2022/10/07 00:03:38;;;;;;;15.23;4.60;;;;;;;13.15;61.14;102672.50;5030767;28;20056;-65
2022/10/07 00:06:13;;;;;;;10.20;4.05;;;;;;;13.08;61.14;102678.09;5030062;28;20270;-65
2022/10/07 00:08:42;;;;;;;12.52;4.93;;;;;;;13.05;60.64;102673.00;5028785;28;20130;-65
2022/10/07 00:11:13;;;;;;;14.80;4.28;;;;;;;13.01;61.20;102672.59;5031652;28;20025;-64
2022/10/07 00:13:40;;;;;;;17.33;4.60;;;;;;;13.00;61.37;102664.44;5034091;28;20040;-64
2022/10/07 00:16:12;;;;;;;16.00;4.68;;;;;;;12.92;61.66;102665.56;5033785;28;20021;-64
2022/10/07 00:18:38;;;;;;;13.50;4.50;;;;;;;12.92;61.33;102659.16;5034563;28;20500;-64
2022/10/07 00:21:10;;;;;;;13.90;4.82;;;;;;;12.89;61.54;102662.38;5033024;28;20300;-64
2022/10/07 00:23:35;;;;;;;;;;;;;;;13.16;60.60;102663.03;5034316;28;20043;-64
2022/10/07 00:26:03;;;;;;;14.07;4.47;;;;;;;12.92;61.45;102661.94;5031467;28;20435;-65
2022/10/07 00:28:29;;;;;;;11.68;4.53;;;;;;;12.91;61.57;102657.44;5032817;28;20030;-66
2022/10/07 00:30:58;;;;;;;13.45;4.38;;;;;;;12.81;61.71;102659.84;5034299;28;20038;-65
2022/10/07 00:33:24;;;;;;;13.23;4.30;;;;;;;12.87;61.87;102656.19;5034666;28;20033;-65
2022/10/07 00:35:49;;;;;;;9.38;3.95;;;;;;;12.86;61.66;102648.91;5033724;28;20407;-65
2022/10/07 00:38:14;;;;;;;14.95;4.75;;;;;;;12.78;61.97;102650.88;5033392;28;20036;-65
2022/10/07 00:40:40;;;;;;;18.15;4.70;;;;;;;12.75;62.22;102651.31;5033697;28;20031;-65
2022/10/07 00:43:28;;;;;;;15.98;4.30;;;;;;;12.83;61.86;102639.06;5033409;28;20091;-65
2022/10/07 00:46:21;;;;;;;11.25;4.10;;;;;;;12.77;62.03;102642.72;5034414;28;20026;-65
2022/10/07 00:48:47;;;;;;;10.70;4.03;;;;;;;12.74;62.28;102635.69;5030343;28;20179;-65
2022/10/07 00:51:15;;;;;;;9.15;3.97;;;;;;;12.74;61.93;102632.06;5033291;28;20100;-65
2022/10/07 00:53:44;;;;;;;10.52;4.40;;;;;;;12.74;61.86;102634.84;5034276;28;20030;-65
2022/10/07 00:56:10;;;;;;;14.43;4.78;;;;;;;12.68;62.21;102638.50;5028745;28;20041;-65
2022/10/07 00:58:39;;;;;;;11.60;4.22;;;;;;;12.60;62.42;102630.41;5033393;28;20033;-65
2022/10/07 01:01:05;;;;;;;15.90;4.00;;;;;;;12.59;62.72;102626.78;5034120;28;20034;-65
2022/10/07 01:03:32;;;;;;;15.95;4.57;;;;;;;12.64;62.59;102617.75;5032430;28;20431;-65
2022/10/07 01:05:57;;;;;;;20.42;5.10;;;;;;;12.61;62.38;102621.81;5033902;28;20100;-65
2022/10/07 01:08:23;;;;;;;13.43;4.35;;;;;;;12.57;62.49;102617.78;5033607;28;20433;-65
2022/10/07 01:11:15;;;;;;;13.55;4.20;;;;;;;12.60;62.40;102613.69;5030406;28;20104;-65
2022/10/07 01:13:45;;;;;;;16.42;5.07;;;;;;;12.63;62.40;102624.41;5032874;28;20040;-64
2022/10/07 01:16:22;;;;;;;16.40;4.25;;;;;;;12.57;62.86;102617.78;5032876;28;20041;-65
2022/10/07 01:19:10;;;;;;;13.35;3.72;;;;;;;12.66;62.17;102613.66;5032648;28;20026;-65
2022/10/07 01:22:10;;;;;;;14.13;3.97;;;;;;;12.63;62.17;102610.47;5030063;28;20042;-65
2022/10/07 01:24:58;;;;;;;14.50;4.68;;;;;;;12.55;62.83;102599.59;5031916;28;20089;-65
2022/10/07 01:27:25;;;;;;;12.63;4.18;;;;;;;12.50;62.67;102598.34;5032244;28;20033;-65
2022/10/07 01:29:56;;;;;;;11.57;3.83;;;;;;;12.50;62.93;102605.84;5033488;28;20040;-65
2022/10/07 01:32:35;;;;;;;18.25;5.03;;;;;;;12.45;63.15;102597.28;5031774;28;20385;-65
2022/10/07 01:35:04;;;;;;;14.95;4.70;;;;;;;12.36;62.71;102593.06;5031476;28;20025;-65
2022/10/07 01:37:36;;;;;;;14.38;4.75;;;;;;;12.39;62.92;102590.69;5032389;28;20025;-65
2022/10/07 01:40:06;;;;;;;17.40;4.88;;;;;;;12.37;63.25;102576.13;5033021;28;20536;-65
2022/10/07 01:42:32;;;;;;;14.25;4.53;;;;;;;12.39;63.15;102568.41;5032458;28;20048;-64
2022/10/07 01:44:58;;;;;;;14.27;4.78;;;;;;;12.35;63.04;102569.94;5030868;28;20444;-65
2022/10/07 01:47:27;;;;;;;17.88;5.28;;;;;;;12.34;63.48;102565.47;5032357;28;20088;-65
2022/10/07 01:49:52;;;;;;;13.07;4.47;;;;;;;12.27;63.18;102562.69;5032138;28;20060;-65
2022/10/07 01:52:50;;;;;;;16.50;5.00;;;;;;;12.42;62.83;102551.25;5032067;28;20053;-65
2022/10/07 01:55:30;;;;;;;12.95;4.80;;;;;;;12.35;63.18;102550.44;5032106;28;20044;-65
2022/10/07 01:58:23;;;;;;;12.40;4.22;;;;;;;12.29;63.25;102545.75;5016838;28;20160;-65
2022/10/07 02:01:11;;;;;;;20.52;5.22;;;;;;;12.31;63.58;102542.78;5032517;28;20037;-65
2022/10/07 02:03:53;;;;;;;14.50;4.82;;;;;;;12.29;63.36;102535.47;5027914;28;20030;-65
2022/10/07 02:06:48;;;;;;;14.95;4.90;;;;;;;12.26;63.63;102530.38;5032027;28;20029;-65
2022/10/07 02:09:32;;;;;;;18.50;5.25;;;;;;;12.31;63.20;102532.47;5029489;28;20140;-65
2022/10/07 02:12:09;;;;;;;17.67;5.53;;;;;;;12.24;63.72;102534.44;5023177;28;20068;-64
2022/10/07 02:14:43;;;;;;;17.45;5.55;;;;;;;12.21;63.50;102529.31;5031089;28;20030;-65
2022/10/07 02:17:17;;;;;;;16.63;5.47;;;;;;;12.23;63.52;102524.41;5032941;28;20041;-64
2022/10/07 02:19:48;;;;;;;18.70;5.07;;;;;;;12.13;63.62;102524.00;5029766;28;20026;-65
2022/10/07 02:22:16;;;;;;;16.88;5.10;;;;;;;12.12;63.64;102520.38;5031934;28;20120;-65
2022/10/07 02:24:43;;;;;;;17.83;5.38;;;;;;;12.14;63.77;102521.00;5032030;28;20021;-64
2022/10/07 02:27:10;;;;;;;19.13;5.13;;;;;;;12.16;63.45;102518.84;5031928;28;20101;-65
2022/10/07 02:29:39;;;;;;;15.30;4.97;;;;;;;12.10;63.81;102516.94;5032489;28;20112;-65
2022/10/07 02:32:12;;;;;;;15.32;5.63;;;;;;;12.09;63.70;102511.63;5031856;28;20041;-64
2022/10/07 02:34:42;;;;;;;16.73;4.60;;;;;;;12.06;63.75;102506.50;5030813;28;20502;-65
2022/10/07 02:37:16;;;;;;;17.85;5.40;;;;;;;12.01;64.19;102496.88;5032329;28;20637;-64
2022/10/07 02:39:44;;;;;;;13.85;4.82;;;;;;;11.99;64.05;102495.41;5030760;28;21063;-65
2022/10/07 02:42:50;;;;;;;18.65;5.43;;;;;;;12.04;63.54;102496.44;5030403;28;20040;-65
2022/10/07 02:45:27;;;;;;;18.17;5.20;;;;;;;11.98;64.16;102496.47;5022758;28;20061;-65
2022/10/07 02:48:00;;;;;;;13.27;4.85;;;;;;;11.96;63.96;102496.72;5031391;28;20037;-64
2022/10/07 02:50:32;;;;;;;13.18;4.85;;;;;;;11.99;63.98;102485.13;5029182;28;20025;-65
2022/10/07 02:53:00;;;;;;;17.25;5.50;;;;;;;11.94;63.71;102487.72;5032222;28;20076;-65
2022/10/07 02:55:27;;;;;;;18.30;5.45;;;;;;;11.94;63.64;102487.72;5013042;28;20113;-65
2022/10/07 02:57:58;;;;;;;13.55;5.38;;;;;;;11.89;64.23;102486.69;5012171;28;20049;-65
2022/10/07 03:00:24;;;;;;;17.10;5.47;;;;;;;11.89;63.83;102479.19;5013864;28;20136;-65
2022/10/07 03:02:52;;;;;;;12.30;4.97;;;;;;;11.89;64.06;102475.56;5030748;28;20125;-64
2022/10/07 03:05:19;;;;;;;20.13;5.22;;;;;;;11.85;63.96;102477.94;5032041;28;20033;-65
2022/10/07 03:07:56;;;;;;;16.50;4.80;;;;;;;11.86;63.92;102474.06;5031830;28;20384;-64
2022/10/07 03:10:22;;;;;;;21.17;5.00;;;;;;;11.80;64.14;102469.38;5024814;28;20132;-64
2022/10/07 03:12:47;;;;;;;14.38;4.68;;;;;;;11.83;63.81;102468.97;5031679;28;20100;-64
2022/10/07 03:15:12;;;;;;;13.30;4.88;;;;;;;11.82;63.87;102467.22;5031787;28;20022;-64
2022/10/07 03:17:39;;;;;;;13.95;4.93;;;;;;;11.78;64.21;102460.38;5030853;28;20029;-65
2022/10/07 03:20:06;;;;;;;12.32;4.72;;;;;;;11.78;64.09;102457.59;5030914;28;20037;-64
2022/10/07 03:22:31;;;;;;;13.63;5.50;;;;;;;11.73;64.06;102458.25;5030408;28;20038;-65
2022/10/07 03:24:57;;;;;;;18.35;5.63;;;;;;;11.77;63.89;102453.97;5028003;28;20088;-64
2022/10/07 03:27:22;;;;;;;12.30;4.57;;;;;;;11.77;64.16;102453.97;5024404;28;20025;-64
2022/10/07 03:29:47;;;;;;;16.35;5.07;;;;;;;11.76;64.54;102451.41;5010924;28;20068;-64
2022/10/07 03:32:14;;;;;;;13.55;4.53;;;;;;;11.76;64.04;102446.72;5011673;28;20437;-65
2022/10/07 03:34:39;;;;;;;17.08;5.35;;;;;;;11.72;63.98;102450.16;5011941;28;20084;-64
2022/10/07 03:37:04;;;;;;;12.57;4.75;;;;;;;11.73;64.01;102451.84;5011125;28;20026;-65
2022/10/07 03:39:30;;;;;;;18.35;4.55;;;;;;;11.75;63.54;102444.13;5011766;28;20425;-64
2022/10/07 03:41:55;;;;;;;15.65;4.53;;;;;;;11.75;63.73;102449.69;5022020;28;20469;-64
2022/10/07 03:44:21;;;;;;;15.68;5.28;;;;;;;11.66;64.21;102443.53;5030603;28;20037;-65
2022/10/07 03:46:50;;;;;;;15.93;4.55;;;;;;;11.65;64.33;102438.22;5037682;28;20033;-65
2022/10/07 03:49:16;;;;;;;17.40;4.93;;;;;;;11.63;64.14;102441.22;5037764;28;20062;-64
2022/10/07 03:51:41;;;;;;;14.25;4.82;;;;;;;11.60;64.48;102429.69;5037236;28;20037;-64
2022/10/07 03:54:07;;;;;;;13.38;4.95;;;;;;;11.61;64.24;102436.94;5037165;28;20469;-64
2022/10/07 03:56:32;;;;;;;17.35;4.53;;;;;;;11.61;64.21;102436.94;5035936;28;20029;-64
2022/10/07 03:58:58;;;;;;;15.23;4.32;;;;;;;11.58;64.22;102437.38;5037320;28;20029;-64
2022/10/07 04:01:24;;;;;;;16.73;5.53;;;;;;;11.61;64.43;102436.94;5037582;28;20024;-65
2022/10/07 04:03:50;;;;;;;17.83;4.97;;;;;;;11.61;64.50;102436.94;5036081;28;20048;-64
2022/10/07 04:06:15;;;;;;;13.52;4.65;;;;;;;11.64;64.13;102436.50;5037224;28;20480;-65
2022/10/07 04:08:42;;;;;;;14.82;5.28;;;;;;;11.58;64.39;102429.03;5037736;28;20479;-65
2022/10/07 04:11:07;;;;;;;15.63;5.40;;;;;;;11.53;64.38;102436.13;5036965;28;20040;-64
2022/10/07 04:13:33;;;;;;;14.57;5.45;;;;;;;11.62;64.28;102424.75;5036227;28;20034;-64
2022/10/07 04:16:03;;;;;;;13.68;4.68;;;;;;;11.55;64.99;102425.63;5036571;28;20543;-64
2022/10/07 04:18:29;;;;;;;19.65;5.30;;;;;;;11.51;64.34;102423.50;5037945;28;20037;-64
2022/10/07 04:20:58;;;;;;;14.65;4.82;;;;;;;11.50;64.76;102425.44;5036063;28;20790;-64
2022/10/07 04:23:23;;;;;;;12.00;4.78;;;;;;;11.52;64.49;102426.06;5037640;28;20038;-65
2022/10/07 04:25:48;;;;;;;13.85;5.35;;;;;;;11.50;64.27;102419.88;5036868;28;20379;-64
2022/10/07 04:28:19;;;;;;;17.25;5.47;;;;;;;11.51;64.34;102413.25;5036977;28;20029;-64
2022/10/07 04:30:50;;;;;;;13.90;5.68;;;;;;;11.48;64.56;102415.63;5035333;28;20029;-65
2022/10/07 04:33:16;;;;;;;14.43;4.78;;;;;;;11.42;64.44;102425.69;5036933;28;20037;-64
2022/10/07 04:35:43;;;;;;;16.65;5.65;;;;;;;11.46;64.48;102424.16;5037273;28;20037;-64
2022/10/07 04:38:12;;;;;;;17.38;5.18;;;;;;;11.37;64.88;102425.50;5037310;28;20481;-64
2022/10/07 04:40:43;;;;;;;16.95;4.72;;;;;;;11.35;64.69;102419.28;5034735;28;20040;-64
2022/10/07 04:43:22;;;;;;;14.60;5.65;;;;;;;11.37;64.44;102424.66;5037202;28;20029;-65
2022/10/07 04:45:59;;;;;;;19.85;5.32;;;;;;;11.33;64.85;102429.78;5035896;28;20480;-64
2022/10/07 04:48:26;;;;;;;18.00;5.50;;;;;;;11.34;64.69;102420.38;5036871;28;20025;-64
2022/10/07 04:50:51;;;;;;;15.02;5.00;;;;;;;11.34;64.60;102416.75;5036312;28;20025;-65
2022/10/07 04:53:18;;;;;;;13.27;4.55;;;;;;;11.33;64.83;102424.22;5037167;28;20118;-65
2022/10/07 04:55:46;;;;;;;19.27;5.10;;;;;;;11.29;64.48;102414.63;5028974;28;20415;-64
2022/10/07 04:58:12;;;;;;;15.90;5.07;;;;;;;11.32;64.49;102411.41;5033277;28;20128;-65
2022/10/07 05:00:45;;;;;;;16.92;5.28;;;;;;;11.31;64.63;102404.13;5030347;28;20029;-65
2022/10/07 05:03:16;;;;;;;15.90;5.53;;;;;;;11.21;64.91;102403.75;5032095;28;20357;-65
2022/10/07 05:05:43;;;;;;;17.13;5.25;;;;;;;11.22;64.79;102400.75;5032929;28;20057;-65
2022/10/07 05:08:09;;;;;;;17.83;4.97;;;;;;;11.20;64.92;102397.34;5031448;28;20123;-65
2022/10/07 05:10:36;;;;;;;14.27;4.97;;;;;;;11.20;64.70;102393.69;5032049;28;20050;-64
2022/10/07 05:13:02;;;;;;;19.77;5.75;;;;;;;11.17;64.87;102394.16;5032019;28;20766;-65
2022/10/07 05:15:27;;;;;;;16.38;5.22;;;;;;;11.14;65.27;102398.22;5030627;28;20504;-65
2022/10/07 05:17:54;;;;;;;17.45;5.00;;;;;;;11.15;64.94;102391.56;5015324;28;20065;-65
2022/10/07 05:20:20;;;;;;;18.23;5.63;;;;;;;11.16;65.01;102390.53;5028383;28;20459;-65
2022/10/07 05:22:46;;;;;;;17.73;5.70;;;;;;;11.18;65.05;102387.50;5032799;28;20025;-64
2022/10/07 05:25:11;;;;;;;16.77;5.20;;;;;;;11.14;65.18;102386.25;5033781;28;20067;-64
2022/10/07 05:27:36;;;;;;;18.77;4.90;;;;;;;11.15;65.31;102382.38;5033443;28;20475;-65
2022/10/07 05:30:02;;;;;;;20.45;4.78;;;;;;;11.12;65.38;102385.59;5032960;28;20065;-64
2022/10/07 05:32:27;;;;;;;15.13;4.78;;;;;;;11.15;65.06;102387.94;5031743;28;20472;-64
2022/10/07 05:34:53;;;;;;;16.38;5.07;;;;;;;11.12;65.38;102385.59;5033419;28;20384;-65
2022/10/07 05:37:18;;;;;;;15.85;4.72;;;;;;;11.14;65.26;102384.31;5032684;28;20423;-64
2022/10/07 05:39:43;;;;;;;17.63;4.47;;;;;;;11.12;65.25;102378.13;5033376;28;20494;-64
2022/10/07 05:42:11;;;;;;;20.75;5.22;;;;;;;11.18;65.20;102380.03;5026569;28;20036;-64
2022/10/07 05:44:36;;;;;;;15.40;4.47;;;;;;;11.13;65.27;102373.44;5029509;28;20479;-64
2022/10/07 05:47:02;;;;;;;15.70;4.75;;;;;;;11.18;65.20;102381.97;5031420;28;20025;-64
2022/10/07 05:49:27;;;;;;;15.65;4.85;;;;;;;11.17;65.03;102385.81;5030327;28;20087;-64
2022/10/07 05:51:52;;;;;;;16.38;4.90;;;;;;;11.14;65.40;102380.69;5027696;28;20029;-64
2022/10/07 05:54:19;;;;;;;15.90;4.78;;;;;;;11.12;65.32;102374.47;5018432;28;20025;-64
2022/10/07 05:56:44;;;;;;;11.60;4.03;;;;;;;11.16;65.01;102367.41;5025170;28;20040;-65
2022/10/07 05:59:10;;;;;;;20.02;5.60;;;;;;;11.15;65.23;102369.34;5031469;28;20037;-65
2022/10/07 06:01:35;;;;;;;15.93;4.45;;;;;;;11.14;65.33;102369.56;5030661;28;20037;-65
2022/10/07 06:04:00;;;;;;;20.77;4.72;;;;;;;11.11;65.40;102375.56;5024786;28;20022;-66
2022/10/07 06:06:26;;;;;;;12.80;4.10;;;;;;;11.10;65.53;102368.31;5016353;28;20018;-65
2022/10/07 06:08:51;;;;;;;12.48;4.10;;;;;;;11.09;65.54;102366.63;5029296;28;20057;-64
2022/10/07 06:14:03;;;;;;;18.27;4.63;;;;;;;11.10;65.45;102363.59;5022241;28;20044;-65
2022/10/07 06:16:29;;;;;;;20.23;4.47;;;;;;;11.11;65.53;102359.75;5028539;28;20029;-64
2022/10/07 06:18:55;;;;;;;13.70;3.78;;;;;;;11.06;65.70;102365.13;5024259;28;20037;-65
2022/10/07 06:21:26;;;;;;;12.68;4.25;;;;;;;11.05;65.67;102355.09;5028131;28;20034;-64
2022/10/07 06:23:53;;;;;;;12.30;3.78;;;;;;;11.08;65.73;102357.41;5029292;28;20760;-65
2022/10/07 06:26:20;;;;;;;12.07;3.55;;;;;;;11.04;65.93;102353.34;5028603;28;20033;-65
2022/10/07 06:28:46;;;;;;;16.88;3.80;;;;;;;10.98;66.13;102351.47;5029270;28;20057;-64
2022/10/07 06:31:16;;;;;;;14.73;3.60;;;;;;;11.01;66.08;102346.31;5027232;28;20049;-66
2022/10/07 06:33:42;;;;;;;16.45;4.25;;;;;;;11.01;65.99;102351.88;5026803;28;20116;-66
2022/10/07 06:36:12;;;;;;;11.80;3.33;;;;;;;11.02;66.10;102349.94;5022970;28;20119;-66
2022/10/07 06:38:42;;;;;;;15.07;3.72;;;;;;;11.23;68.13;102359.91;5016737;28;20053;-66
2022/10/07 06:41:08;;;;;;;15.63;4.25;;;;;;;11.18;66.45;102357.78;5014279;28;20084;-67
2022/10/07 06:43:33;;;;;;;14.77;4.07;;;;;;;11.25;65.76;102357.78;5018299;28;20025;-66
2022/10/07 06:46:01;;;;;;;15.15;4.20;;;;;;;11.18;65.94;102359.72;5027944;28;20025;-66
2022/10/07 06:48:28;;;;;;;12.48;3.72;;;;;;;11.22;65.91;102355.44;5027889;28;20053;-66
2022/10/07 06:50:57;;;;;;;13.18;4.45;;;;;;;11.22;65.98;102358.22;5030172;28;20029;-65
2022/10/07 06:53:23;;;;;;;11.48;3.70;;;;;;;11.25;66.15;102360.56;5028709;28;20029;-66
2022/10/07 06:55:50;;;;;;;17.05;4.20;;;;;;;11.23;66.24;102362.69;5026870;28;20087;-65
2022/10/07 06:58:16;;;;;;;12.18;3.83;;;;;;;11.26;66.05;102357.53;5010965;28;20053;-65
2022/10/07 07:00:42;;;;;;;16.40;3.33;;;;;;;11.26;66.10;102362.25;5010486;28;20022;-65
2022/10/07 07:03:09;;;;;;;13.82;4.47;;;;;;;11.25;66.37;102363.34;5021963;28;20045;-66
2022/10/07 07:05:37;;;;;;;11.38;3.60;;;;;;;11.26;66.38;102368.66;5021394;28;20071;-65
2022/10/07 07:08:02;;;;;;;11.52;4.07;;;;;;;11.33;66.08;102359.44;5027404;28;20468;-65
2022/10/07 07:10:27;;;;;;;11.52;3.80;;;;;;;11.39;65.79;102361.31;5027877;28;20065;-65
2022/10/07 07:12:53;;;;;;;16.63;3.50;;;;;;;11.42;66.12;102367.28;5015000;28;20026;-65
2022/10/07 07:15:20;;;;;;;17.30;4.13;;;;;;;11.44;66.04;102361.53;5010937;28;20069;-65
2022/10/07 07:17:45;;;;;;;15.65;3.72;;;;;;;11.43;66.20;102363.44;5018195;28;20033;-66
2022/10/07 07:20:12;;;;;;;16.55;3.80;;;;;;;11.51;66.13;102362.31;5025774;28;20029;-66
2022/10/07 07:22:37;;;;;;;13.82;3.50;;;;;;;11.58;65.77;102360.34;5028480;28;20026;-66
2022/10/07 07:25:03;;;;;;;19.23;3.95;;;;;;;11.65;65.78;102365.91;5030021;28;20036;-65
2022/10/07 07:27:28;;;;;;;17.92;4.18;;;;;;;11.64;65.76;102364.19;5024343;28;20477;-67
2022/10/07 07:29:54;;;;;;;10.43;3.45;;;;;;;11.70;65.78;102368.84;5029170;28;20032;-66
2022/10/07 07:32:19;;;;;;;14.15;4.40;;;;;;;11.75;65.28;102360.66;5014766;28;20029;-67
2022/10/07 07:34:44;;;;;;;14.02;3.78;;;;;;;11.82;65.65;102367.06;5011643;28;20030;-66
2022/10/07 07:37:10;;;;;;;14.05;3.40;;;;;;;11.91;65.42;102365.75;5014158;28;20026;-65
2022/10/07 07:39:35;;;;;;;13.45;3.78;;;;;;;11.97;64.72;102370.41;5020581;28;20032;-65
2022/10/07 07:42:01;;;;;;;11.77;3.53;;;;;;;12.06;65.30;102361.78;5023145;28;20087;-64
2022/10/07 07:44:28;;;;;;;12.52;3.75;;;;;;;12.17;65.08;102366.59;5024555;28;20112;-67
2022/10/07 07:46:54;;;;;;;17.33;4.20;;;;;;;12.27;64.95;102365.03;5026401;28;20128;-67
2022/10/07 07:49:20;;;;;;;14.00;4.05;;;;;;;12.33;64.52;102352.13;5024234;28;20056;-65
2022/10/07 07:51:46;;;;;;;18.15;3.72;;;;;;;12.46;64.34;102359.50;5025348;28;20029;-67
2022/10/07 07:54:12;;;;;;;15.00;3.50;;;;;;;12.49;63.72;102357.09;5024463;28;20030;-72
2022/10/07 07:56:37;;;;;;;14.32;4.10;;;;;;;12.56;63.41;102361.75;5025035;28;20487;-68
2022/10/07 07:59:04;;;;;;;17.05;3.83;;;;;;;12.64;63.47;102362.31;5026456;28;20120;-68
2022/10/07 08:01:34;;;;;;;14.75;3.58;;;;;;;12.67;63.25;102361.84;5023340;28;20034;-67
2022/10/07 08:04:00;;;;;;;12.55;3.70;;;;;;;12.77;63.89;102355.72;5022688;28;20041;-69
2022/10/07 08:06:27;;;;;;;11.32;3.75;;;;;;;12.88;63.52;102356.91;5025600;28;20064;-67
2022/10/07 08:08:57;;;;;;;9.38;2.72;;;;;;;12.93;62.99;102360.72;5020253;28;20056;-69
2022/10/07 08:11:23;;;;;;;13.55;3.30;;;;;;;13.28;67.92;102351.72;5026305;28;20042;-67
2022/10/07 08:13:48;;;;;;;9.90;3.22;;;;;;;13.56;66.76;102347.47;5023152;28;20546;-69
2022/10/07 08:16:19;;;;;;;16.60;3.65;;;;;;;13.75;64.86;102338.84;5015735;28;20057;-69
2022/10/07 08:18:47;;;;;;;9.55;3.20;;;;;;;14.04;64.74;102346.53;5023619;28;20025;-69
2022/10/07 08:21:13;;;;;;;12.50;3.70;;;;;;;14.16;63.13;102353.00;5024057;28;20068;-69
2022/10/07 08:23:39;;;;;;;13.00;3.35;;;;;;;14.18;60.63;102336.84;5027432;28;20048;-69
2022/10/07 08:26:05;;;;;;;15.23;3.83;;;;;;;14.48;62.25;102339.53;5025072;28;20065;-70
2022/10/07 08:28:31;;;;;;;8.82;3.00;;;;;;;14.63;61.33;102344.66;5023856;28;20468;-67
2022/10/07 08:31:05;;;;;;;10.32;3.08;;;;;;;14.74;60.91;102335.44;5024223;28;20616;-68
2022/10/07 08:33:33;;;;;;;11.35;2.80;;;;;;;14.82;60.35;102342.59;5026574;28;20026;-69
2022/10/07 08:36:00;;;;;;;12.68;3.38;;;;;;;14.87;59.76;102339.91;5030211;28;20133;-68
2022/10/07 08:38:34;;;;;;;11.60;3.65;;;;;;;14.92;59.92;102335.25;5028141;28;20488;-68
2022/10/07 08:41:17;;;;;;;9.05;3.40;;;;;;;15.13;59.21;102332.88;5030802;28;20075;-68
2022/10/07 08:43:45;;;;;;;14.75;3.63;;;;;;;15.04;57.85;102332.44;5033782;28;20682;-72
2022/10/07 08:46:14;;;;;;;11.73;3.33;;;;;;;14.93;58.32;102333.31;5031034;28;20026;-69
2022/10/07 08:48:42;;;;;;;13.60;3.13;;;;;;;14.98;58.75;102320.31;5032700;28;20468;-68
2022/10/07 08:51:18;;;;;;;13.23;3.30;;;;;;;15.05;58.93;102316.50;5024034;28;20025;-68
2022/10/07 08:53:46;;;;;;;12.95;2.80;;;;;;;15.23;58.48;102314.38;5026940;28;20029;-60
2022/10/07 08:56:22;;;;;;;7.97;2.85;;;;;;;15.30;58.51;102319.00;5028191;28;20025;-68
2022/10/07 08:59:21;;;;;;;12.80;3.00;;;;;;;15.38;58.63;102305.44;5031390;28;20033;-67
2022/10/07 09:01:57;;;;;;;7.93;3.13;;;;;;;15.54;58.53;102308.53;5031857;28;20037;-66
2022/10/07 09:04:53;;;;;;;12.85;2.65;;;;;;;15.62;58.15;102296.94;5032235;28;20163;-66
2022/10/07 09:07:22;;;;;;;11.57;3.03;;;;;;;15.58;57.81;102295.75;5030444;28;20026;-68
2022/10/07 09:09:58;;;;;;;11.85;3.08;;;;;;;15.59;57.94;102287.06;5020908;28;20488;-67
2022/10/07 09:12:39;;;;;;;15.82;3.28;;;;;;;15.68;57.77;102296.81;5028213;28;20124;-65
2022/10/07 09:15:13;;;;;;;9.70;2.80;;;;;;;15.81;57.71;102303.19;5020416;28;20087;-65
2022/10/07 09:17:53;;;;;;;12.18;2.60;;;;;;;15.84;57.81;102291.50;5028883;28;20469;-66
2022/10/07 09:20:22;;;;;;;12.30;3.08;;;;;;;15.99;57.25;102293.69;5022980;28;20060;-66
2022/10/07 09:22:52;;;;;;;11.95;2.75;;;;;;;16.00;56.95;102287.84;5030456;28;20064;-66
2022/10/07 09:25:25;;;;;;;14.25;3.03;;;;;;;16.22;56.85;102287.06;5029898;28;20087;-66
2022/10/07 09:27:53;;;;;;;11.68;3.33;;;;;;;16.31;56.40;102282.69;5028108;28;20062;-67
2022/10/07 09:30:22;;;;;;;13.65;2.80;;;;;;;16.45;56.12;102281.25;5028476;28;20040;-67
2022/10/07 09:32:53;;;;;;;10.13;2.63;;;;;;;16.68;55.91;102275.41;5025752;28;20076;-67
2022/10/07 09:35:21;;;;;;;13.13;3.13;;;;;;;16.69;55.27;102276.25;5029330;28;20033;-67
2022/10/07 09:38:02;;;;;;;14.48;3.05;;;;;;;16.65;55.96;102278.72;5029126;28;20053;-66
2022/10/07 09:41:13;;;;;;;15.65;3.45;;;;;;;16.69;55.90;102274.28;5029628;28;20130;-66
2022/10/07 09:43:22;;;;;;;13.73;3.30;;;;;;;16.80;54.78;102258.50;5030421;28;20041;-66
2022/10/07 09:45:48;;;;;;;12.93;3.45;;;;;;;16.81;54.85;102263.00;5032154;28;20026;-67
2022/10/07 09:48:20;;;;;;;15.23;2.78;;;;;;;16.82;54.93;102256.28;5016595;28;20034;-66
2022/10/07 09:50:46;;;;;;;10.45;2.53;;;;;;;16.81;54.41;102254.56;5023817;28;20029;-65
2022/10/07 09:53:23;;;;;;;11.65;3.20;;;;;;;16.72;54.37;102253.31;5026383;28;20021;-66
2022/10/07 09:55:51;;;;;;;10.82;2.65;;;;;;;16.92;54.79;102250.78;5027511;28;20026;-66
2022/10/07 09:58:22;;;;;;;13.57;2.40;;;;;;;16.95;54.19;102254.19;5028750;28;20026;-67
2022/10/07 10:00:49;;;;;;;10.90;2.70;;;;;;;16.92;54.01;102255.56;5029031;28;20030;-66
2022/10/07 10:03:16;;;;;;;9.73;3.10;;;;;;;17.08;53.32;102249.00;5029357;28;20057;-66
2022/10/07 10:05:56;;;;;;;12.85;3.08;;;;;;;17.07;53.82;102254.91;5029829;28;20021;-67
2022/10/07 10:08:30;;;;;;;14.20;3.65;;;;;;;17.14;53.17;102238.72;5029233;28;20034;-67
2022/10/07 10:11:01;;;;;;;12.18;2.92;;;;;;;17.14;53.15;102235.91;5025802;28;20053;-67
2022/10/07 10:13:30;;;;;;;11.85;3.22;;;;;;;17.20;52.97;102234.84;5026834;28;20033;-66
2022/10/07 10:15:56;;;;;;;10.38;2.40;;;;;;;17.31;52.87;102230.19;5026683;28;20094;-67
2022/10/07 10:18:37;;;;;;;10.88;2.00;;;;;;;17.37;53.11;102235.59;5028489;28;20055;-67
2022/10/07 10:21:18;;;;;;;11.27;2.78;;;;;;;17.39;52.86;102227.75;5028966;28;20222;-68
2022/10/07 10:23:56;;;;;;;14.57;3.20;;;;;;;17.44;52.81;102212.91;5028758;28;20075;-66
2022/10/07 10:26:37;;;;;;;9.45;2.60;;;;;;;17.46;52.58;102213.50;5025929;28;20044;-67
2022/10/07 10:29:24;;;;;;;7.97;2.30;;;;;;;17.54;52.33;102207.41;5025194;28;20057;-68
2022/10/07 10:32:04;;;;;;;9.32;2.42;;;;;;;17.55;51.78;102202.63;5027882;28;20112;-68
2022/10/07 10:34:58;;;;;;;8.27;2.65;;;;;;;17.53;52.17;102208.53;5028893;28;20041;-67
2022/10/07 10:37:40;;;;;;;10.45;2.63;;;;;;;17.69;52.01;102186.19;5028024;28;20120;-67
2022/10/07 10:40:22;;;;;;;11.25;2.58;;;;;;;17.77;51.67;102188.53;5027648;28;20813;-68
2022/10/07 10:43:15;;;;;;;9.35;2.20;;;;;;;17.86;52.62;102189.72;5026348;28;20033;-68
2022/10/07 10:45:53;;;;;;;11.07;2.58;;;;;;;17.91;50.95;102173.72;5025668;28;20112;-66
2022/10/07 10:48:40;;;;;;;12.70;2.15;;;;;;;17.91;51.06;102182.16;5030358;28;20116;-68
2022/10/07 10:51:09;;;;;;;13.18;2.70;;;;;;;17.97;50.92;102171.81;5027201;28;20080;-66
2022/10/07 10:54:11;;;;;;;10.40;2.30;;;;;;;17.92;51.30;102166.19;5028411;28;20686;-68
2022/10/07 10:56:49;;;;;;;10.75;2.60;;;;;;;17.95;50.21;102168.41;5020999;28;20029;-67
2022/10/07 10:59:24;;;;;;;12.98;2.58;;;;;;;17.97;50.66;102166.19;5029914;28;20047;-67
2022/10/07 11:02:06;;;;;;;16.95;2.90;;;;;;;17.95;50.77;102167.56;5028210;28;20112;-67
2022/10/07 11:04:45;;;;;;;11.20;2.60;;;;;;;18.00;51.32;102157.25;5027350;28;20029;-67
2022/10/07 11:07:22;;;;;;;9.95;2.30;;;;;;;18.01;50.65;102158.91;5028488;28;20026;-67
2022/10/07 11:09:54;;;;;;;13.48;3.38;;;;;;;17.81;49.42;102162.44;5027629;28;20484;-66
2022/10/07 11:12:28;;;;;;;9.43;2.37;;;;;;;17.91;50.02;102147.59;5029132;28;20108;-67
2022/10/07 11:15:00;;;;;;;12.35;2.50;;;;;;;17.94;49.91;102149.03;5009654;28;20030;-67
2022/10/07 11:17:30;;;;;;;8.82;2.38;;;;;;;17.96;50.17;102143.97;5011193;28;20034;-67
2022/10/07 11:20:11;;;;;;;10.93;2.30;;;;;;;18.05;50.27;102136.75;5027559;28;20433;-65
2022/10/07 11:22:43;;;;;;;13.15;2.65;;;;;;;18.11;50.42;102133.66;5028688;28;20033;-63
2022/10/07 11:25:22;;;;;;;7.18;1.98;;;;;;;18.09;49.70;102129.47;5017113;28;20476;-65
2022/10/07 11:27:51;;;;;;;8.02;2.13;;;;;;;18.09;49.33;102121.03;5024733;28;20365;-65
2022/10/07 11:30:20;;;;;;;13.02;2.13;;;;;;;18.05;49.29;102122.69;5021868;28;20025;-66
2022/10/07 11:32:58;;;;;;;12.38;2.75;;;;;;;18.09;50.00;102121.03;5028550;28;20040;-70
2022/10/07 11:35:30;;;;;;;12.60;2.50;;;;;;;18.03;49.64;102108.91;5018639;28;20028;-67